This is the latest recevied weather packets stored in our database for station/object EFTP. If no packets are shown the sender has not sent any weather packets the latest 10 day(s).
| Time | Temp. | Humidity | Pressure | Rain* | Wind** | Luminosity | Snow |
|---|---|---|---|---|---|---|---|
| 1777681622 | 2.78° C | 88% | 1013.2 hPa | - | - | - | - |
| 1777680422 | 3.89° C | 83% | 1013.4 hPa | - | - | - | - |
| 1777679222 | 3.33° C | 84% | 1013.4 hPa | - | - | - | - |
| 1777678022 | 3.33° C | 87% | 1013.6 hPa | - | - | - | - |
| 1777676822 | 4.44° C | 80% | 1013.6 hPa | - | - | - | - |
| 1777675622 | 5° C | 77% | 1013.6 hPa | - | - | - | - |
| 1777674422 | 5° C | 77% | 1013.6 hPa | - | - | - | - |
| 1777673222 | 4.44° C | 84% | 1013.8 hPa | - | - | - | - |
| 1777672022 | 5.56° C | 76% | 1014.1 hPa | - | - | - | - |
| 1777670821 | 6.11° C | 78% | 1014.4 hPa | - | - | - | - |
| 1777669621 | 6.67° C | 78% | 1014.5 hPa | - | - | - | - |
| 1777668421 | 7.22° C | 77% | 1014.6 hPa | - | - | - | - |
| 1777667221 | 7.78° C | 65% | 1014.5 hPa | - | - | - | - |
| 1777666021 | 7.78° C | 67% | 1014.6 hPa | - | - | - | - |
| 1777664821 | 9.44° C | 67% | 1014.7 hPa | - | - | - | - |
| 1777663621 | 11.11° C | 55% | 1014.8 hPa | - | - | - | - |
| 1777662421 | 12.22° C | 51% | 1014.9 hPa | - | - | - | - |
| 1777661221 | 14.44° C | 45% | 1014.7 hPa | - | - | - | - |
| 1777660021 | 15° C | 43% | 1014.7 hPa | - | - | - | - |
| 1777658821 | 15.56° C | 41% | 1014.7 hPa | - | - | - | - |
| 1777657621 | 16.67° C | 39% | 1014.6 hPa | - | - | - | - |
| 1777656421 | 17.78° C | 32% | 1014.6 hPa | - | - | - | - |
| 1777655221 | 18.33° C | 29% | 1014.7 hPa | - | - | - | - |
| 1777654020 | 18.89° C | 28% | 1014.8 hPa | - | - | - | - |
| 1777652820 | 18.89° C | 29% | 1015 hPa | - | - | - | - |
* Rain since midnight (hover to see other rain measurements)
** Current wind speed in m/s (hover to see current wind gust speed)